2003 MAEMI (2003247N10153)


On this page: IBTrACS data - Map and Plots - Positions - Intensities - Original source data

Summary

Start Sep 4
End Sep 16
Basin WP
LMI 150 kt
Sources jtwc_wp
tokyo
cma
hko
In WMO? Yes
Previous storm 2003 GRACE (NA)
Previous in basin 2003 DUJUAN (WP)
Concurrent storms 2003 JIMENA (EP)
2003 FABIAN (NA)
2003 MAEMI (WP)
2003 KEVIN (EP)
2003 HENRI (NA)
2003 ISABEL (NA)
2003 MISSING (NA)
2003 LINDA (EP)
2003 CHOI-WAN (WP)
Next in basin 2003 CHOI-WAN (WP)
Next storm 2003 KEVIN (EP)

top of page IBTrACS Data: File Access

top of page HURSAT Data: File Access

Image of storm

top of page Plots:

Map of storm track will not appear if FTP is down
Time series of cyclone Maximum Sustained Wind will not appear if FTP is down
Time series of cyclone Minimum Central Pressure will not appear if FTP is down

top of page Track Data:Position

jtwc_wp tokyo cma hko
Date Lat Lon Lat Lon Lat Lon Lat Lon
2003-09-04 00:00:00 9.9 153.1
2003-09-04 06:00:00 9.6 150.9 10.4 151.1 10.3 151.1
2003-09-04 12:00:00 10.3 149.5 10.9 149.7 10.9 149.7
2003-09-04 18:00:00 11.3 148.4 11.7 148.7 11.7 148.7
2003-09-05 00:00:00 12.6 147.6 12.5 147.5 12.5 147.5
2003-09-05 06:00:00 13.0 146.1 12.9 145.8 13.0 146.2
2003-09-05 12:00:00 13.5 144.6 13.8 145.1 13.8 145.1
2003-09-05 18:00:00 14.1 143.3 14.0 143.9 14.2 143.9 13.9 143.7
2003-09-06 00:00:00 14.6 142.1 15.6 142.8 15.3 142.4 14.6 142.0
2003-09-06 06:00:00 15.2 141.0 16.5 141.4 16.0 141.5 15.2 141.1
2003-09-06 12:00:00 15.9 140.0 16.8 139.9 16.2 139.9 15.8 140.3
2003-09-06 18:00:00 16.7 138.9 17.0 138.7 16.6 138.3 16.5 139.0
2003-09-07 00:00:00 17.4 137.7 17.8 138.3 17.0 137.6 17.2 137.8
2003-09-07 06:00:00 18.3 136.7 18.8 136.9 17.8 136.9 18.0 136.8
2003-09-07 12:00:00 19.0 135.8 19.1 135.9 18.6 136.0 18.8 136.0
2003-09-07 18:00:00 19.4 134.8 19.4 135.0 19.2 135.2 19.3 135.0
2003-09-08 00:00:00 19.9 134.0 19.7 133.9 19.8 134.0 19.7 133.9
2003-09-08 06:00:00 20.2 133.0 20.0 132.8 20.1 132.7 20.1 132.8
2003-09-08 12:00:00 20.6 132.0 20.4 132.0 20.5 132.0 20.4 132.0
2003-09-08 18:00:00 21.1 131.1 21.0 131.2 21.0 131.2 21.0 131.2
2003-09-09 00:00:00 21.8 130.3 22.0 130.4 21.9 130.5 21.8 130.5
2003-09-09 06:00:00 22.4 129.5 22.6 129.4 22.5 129.4 22.4 129.6
2003-09-09 12:00:00 22.9 128.7 22.9 128.7 22.9 128.8 22.9 128.8
2003-09-09 18:00:00 23.3 127.8 23.3 127.8 23.4 127.8 23.3 127.9
2003-09-10 00:00:00 23.6 127.2 23.6 127.2 23.7 127.2 23.7 127.3
jtwc_wp tokyo cma hko
2003-09-10 06:00:00 24.0 126.7 24.0 126.6 24.0 126.8 24.0 126.6
2003-09-10 12:00:00 24.3 126.1 24.3 126.0 24.3 126.1 24.3 126.0
2003-09-10 18:00:00 24.7 125.6 24.7 125.4 24.8 125.4 24.7 125.5
2003-09-11 00:00:00 25.2 125.3 25.2 125.1 25.3 125.2 25.1 125.2
2003-09-11 06:00:00 25.9 125.3 25.9 125.3 25.8 125.2 25.7 125.1
2003-09-11 12:00:00 27.0 125.5 27.0 125.6 26.9 125.4 26.9 125.4
2003-09-11 18:00:00 28.6 125.8 28.4 125.8 28.4 125.8 28.4 125.8
2003-09-12 00:00:00 30.6 126.5 30.5 126.5 30.6 126.5 30.6 126.4
2003-09-12 06:00:00 32.7 127.1 32.7 127.1 32.7 127.0 32.7 127.1
2003-09-12 12:00:00 34.8 128.3 34.9 128.3 35.0 128.3 34.9 128.3
2003-09-12 18:00:00 36.9 129.7 37.0 129.8 37.0 129.8 37.0 129.8
2003-09-13 00:00:00 38.9 131.5 39.1 131.8 39.1 131.8 39.1 131.8
2003-09-13 06:00:00 40.6 134.7 40.5 134.6 40.5 134.6 40.5 134.6
2003-09-13 12:00:00 42.2 137.9 42.3 138.1 42.3 138.1
2003-09-13 18:00:00 44.7 141.2 44.7 141.2
2003-09-14 00:00:00 45.2 145.7
2003-09-14 06:00:00 46.1 147.5
2003-09-14 12:00:00 47.1 148.9
2003-09-14 18:00:00 48.2 150.0
2003-09-15 00:00:00 48.8 150.6
2003-09-15 06:00:00 49.0 151.1
2003-09-15 12:00:00 49.2 151.4
2003-09-15 18:00:00 48.9 152.5
2003-09-16 00:00:00 48.9 153.4

top of pageTrack Data:Intensity

jtwc_wp tokyo cma hko
Date Wind Pres Wind Pres Wind Pres Wind Pres
2003-09-04 00:00:00 1008.
2003-09-04 06:00:00 20. 1004. 1006. 19. 1006.
2003-09-04 12:00:00 25. 1002. 1006. 19. 1006.
2003-09-04 18:00:00 25. 1002. 1004. 23. 1004.
2003-09-05 00:00:00 25. 1002. 1004. 23. 1004.
2003-09-05 06:00:00 25. 1002. 1004. 23. 1004.
2003-09-05 12:00:00 30. 1000. 1004. 23. 1004.
2003-09-05 18:00:00 35. 997. 1002. 29. 1002. 25. 1002.
2003-09-06 00:00:00 40. 994. 1000. 29. 1000. 30. 1000.
2003-09-06 06:00:00 40. 994. 35. 994. 35. 996. 35. 995.
2003-09-06 12:00:00 45. 991. 35. 994. 35. 995. 35. 995.
2003-09-06 18:00:00 50. 987. 40. 992. 39. 992. 40. 990.
2003-09-07 00:00:00 60. 980. 40. 992. 39. 992. 40. 990.
2003-09-07 06:00:00 60. 980. 40. 992. 39. 992. 40. 990.
2003-09-07 12:00:00 60. 980. 45. 990. 45. 990. 45. 985.
2003-09-07 18:00:00 65. 976. 50. 985. 49. 985. 50. 980.
2003-09-08 00:00:00 70. 972. 55. 980. 54. 980. 55. 975.
2003-09-08 06:00:00 70. 972. 60. 975. 54. 980. 55. 975.
2003-09-08 12:00:00 75. 967. 60. 975. 58. 975. 55. 975.
2003-09-08 18:00:00 75. 967. 65. 970. 58. 975. 60. 970.
2003-09-09 00:00:00 90. 954. 70. 960. 68. 970. 70. 960.
2003-09-09 06:00:00 115. 927. 80. 950. 78. 960. 80. 950.
2003-09-09 12:00:00 130. 910. 85. 940. 87. 950. 90. 940.
2003-09-09 18:00:00 130. 910. 90. 930. 87. 950. 100. 930.
2003-09-10 00:00:00 150. 885. 95. 925. 97. 940. 110. 920.
jtwc_wp tokyo cma hko
2003-09-10 06:00:00 150. 885. 100. 910. 117. 920. 120. 910.
2003-09-10 12:00:00 150. 885. 105. 910. 117. 920. 120. 910.
2003-09-10 18:00:00 135. 904. 105. 910. 117. 920. 120. 910.
2003-09-11 00:00:00 125. 916. 105. 910. 107. 930. 115. 915.
2003-09-11 06:00:00 135. 904. 95. 920. 107. 930. 110. 920.
2003-09-11 12:00:00 135. 904. 95. 930. 97. 940. 105. 925.
2003-09-11 18:00:00 120. 922. 90. 935. 87. 950. 100. 930.
2003-09-12 00:00:00 120. 922. 95. 930. 87. 950. 95. 935.
2003-09-12 06:00:00 105. 938. 90. 935. 78. 960. 95. 935.
2003-09-12 12:00:00 95. 949. 75. 955. 78. 965. 80. 950.
2003-09-12 18:00:00 80. 963. 60. 970. 58. 975. 60. 970.
2003-09-13 00:00:00 75. 967. 55. 975. 49. 980. 55. 975.
2003-09-13 06:00:00 60. 980. 50. 980. 49. 985. 50. 980.
2003-09-13 12:00:00 55. 984. 50. 980. 49. 985.
2003-09-13 18:00:00 50. 980. 49. 985.
2003-09-14 00:00:00 984.
2003-09-14 06:00:00 988.
2003-09-14 12:00:00 988.
2003-09-14 18:00:00 988.
2003-09-15 00:00:00 988.
2003-09-15 06:00:00 992.
2003-09-15 12:00:00 996.
2003-09-15 18:00:00 996.
2003-09-16 00:00:00 996.

top of page Links to source data

Source Source file Format
jtwc_wp bwp152003.txt ATCF
tokyo bst_all.txt:Line=52698:MAEMI:314 JMA text table
cma CH2003BST.txt:Storm=16:Maemi CMA text table
hko tc-besttrack-data.txt:Line=30178:MAEMI HKO Text table